Time;durP1;ratioP1;P1;durP2;ratioP2;P2;SDS_P1;SDS_P2;PMS_P1;PMS_P2;Temp;Humidity;BMP_temperature;BMP_pressure;BME280_temperature;BME280_humidity;BME280_pressure;Samples;Min_cycle;Max_cycle;Signal;HPM_P1;HPM_P2
2023/06/09 00:00:04;;;;;;;18.40;8.95;;;12.10;99.90;;;;;;5035176;28;20084;-80
2023/06/09 00:02:30;;;;;;;15.07;9.07;;;12.10;99.90;;;;;;5068727;28;20048;-81
2023/06/09 00:04:56;;;;;;;18.25;9.32;;;12.10;99.90;;;;;;5034853;28;20029;-81
2023/06/09 00:07:22;;;;;;;13.98;8.55;;;12.10;99.90;;;;;;5055081;28;20037;-80
2023/06/09 00:09:48;;;;;;;18.13;10.25;;;12.10;99.90;;;;;;5068775;28;20414;-80
2023/06/09 00:12:13;;;;;;;17.83;9.23;;;12.10;99.90;;;;;;5037790;28;20313;-80
2023/06/09 00:14:40;;;;;;;14.75;8.90;;;12.10;99.90;;;;;;5071102;28;20099;-80
2023/06/09 00:17:08;;;;;;;15.13;8.68;;;12.10;99.90;;;;;;5034268;28;20036;-80
2023/06/09 00:19:36;;;;;;;17.90;9.20;;;12.10;99.90;;;;;;5034966;28;20037;-81
2023/06/09 00:22:01;;;;;;;15.13;9.38;;;12.10;99.90;;;;;;5037829;28;20563;-80
2023/06/09 00:24:27;;;;;;;15.63;9.57;;;12.20;99.90;;;;;;5056249;28;20124;-80
2023/06/09 00:26:53;;;;;;;17.00;9.23;;;12.20;99.90;;;;;;5037163;28;20368;-80
2023/06/09 00:29:22;;;;;;;16.90;9.73;;;12.20;99.90;;;;;;5060106;28;20128;-80
2023/06/09 00:31:48;;;;;;;16.13;10.18;;;12.20;99.90;;;;;;5068364;28;20049;-80
2023/06/09 00:34:13;;;;;;;17.40;9.38;;;12.20;99.90;;;;;;5050839;28;20044;-80
2023/06/09 00:36:40;;;;;;;17.70;9.68;;;12.20;99.90;;;;;;5057040;28;20040;-81
2023/06/09 00:39:08;;;;;;;12.88;8.40;;;12.20;99.90;;;;;;5063045;28;20047;-80
2023/06/09 00:41:38;;;;;;;14.50;9.13;;;12.20;99.90;;;;;;5088197;28;20037;-80
2023/06/09 00:44:04;;;;;;;17.02;9.27;;;12.20;99.90;;;;;;5069652;28;20071;-80
2023/06/09 00:46:30;;;;;;;17.40;9.27;;;12.20;99.90;;;;;;5067572;28;20057;-80
2023/06/09 00:48:56;;;;;;;14.98;9.07;;;12.20;99.90;;;;;;5038660;28;20061;-81
2023/06/09 00:51:22;;;;;;;12.73;8.15;;;12.30;99.90;;;;;;5040542;28;20090;-80
2023/06/09 00:53:48;;;;;;;15.15;9.48;;;12.30;99.90;;;;;;5046305;28;20052;-81
2023/06/09 00:56:15;;;;;;;16.05;9.27;;;12.30;99.90;;;;;;5034188;28;20044;-81
2023/06/09 00:58:41;;;;;;;19.08;9.20;;;12.30;99.90;;;;;;5067664;28;20102;-80
2023/06/09 01:01:06;;;;;;;15.73;9.30;;;12.30;99.90;;;;;;5034207;28;20032;-80
2023/06/09 01:03:32;;;;;;;16.67;9.15;;;12.30;99.90;;;;;;5053191;28;20429;-80
2023/06/09 01:06:26;;;;;;;13.88;9.00;;;12.30;99.90;;;;;;5052996;28;20044;-80
2023/06/09 01:08:59;;;;;;;16.13;9.23;;;12.30;99.90;;;;;;5032965;28;20068;-80
2023/06/09 01:11:56;;;;;;;18.70;9.90;;;12.30;99.90;;;;;;5051205;28;20437;-80
2023/06/09 01:14:30;;;;;;;20.50;10.35;;;12.30;99.90;;;;;;5058562;28;20076;-80
2023/06/09 01:17:11;;;;;;;16.75;9.65;;;12.40;99.90;;;;;;5047543;28;20041;-80
2023/06/09 01:19:41;;;;;;;18.27;10.40;;;12.40;99.90;;;;;;5079026;28;20040;-80
2023/06/09 01:22:49;;;;;;;17.45;9.57;;;12.40;99.90;;;;;;5070801;28;20398;-80
2023/06/09 01:25:34;;;;;;;16.10;10.07;;;12.30;99.90;;;;;;5050646;28;20442;-81
2023/06/09 01:28:14;;;;;;;18.13;10.38;;;12.30;99.90;;;;;;5041776;28;20119;-80
2023/06/09 01:30:41;;;;;;;15.32;10.35;;;12.30;99.90;;;;;;5047262;28;20081;-80
2023/06/09 01:33:14;;;;;;;17.35;11.07;;;12.30;99.90;;;;;;5057656;28;20048;-80
2023/06/09 01:35:40;;;;;;;;;;;12.20;99.90;;;;;;5050930;28;20037;-81
2023/06/09 01:38:10;;;;;;;17.67;10.85;;;12.20;99.90;;;;;;5050480;28;20389;-81
2023/06/09 01:40:36;;;;;;;18.45;10.55;;;12.20;99.90;;;;;;5050205;28;20496;-81
2023/06/09 01:43:03;;;;;;;16.60;10.60;;;12.20;99.90;;;;;;5041560;28;20037;-80
2023/06/09 01:45:28;;;;;;;16.85;10.52;;;12.20;99.90;;;;;;5033688;28;20048;-80
2023/06/09 01:47:54;;;;;;;15.20;10.18;;;12.20;99.90;;;;;;5050086;28;20488;-80
2023/06/09 01:50:45;;;;;;;21.33;11.38;;;12.20;99.90;;;;;;5050454;28;20045;-80
2023/06/09 01:53:18;;;;;;;21.95;11.75;;;12.20;99.90;;;;;;5048738;28;20045;-81
2023/06/09 01:55:55;;;;;;;18.25;10.70;;;12.20;99.90;;;;;;5038146;28;20053;-81
2023/06/09 01:58:28;;;;;;;18.95;10.88;;;12.20;99.90;;;;;;5050249;28;20450;-80
2023/06/09 02:00:56;;;;;;;18.15;11.48;;;12.10;99.90;;;;;;5050418;28;20119;-80
2023/06/09 02:03:23;;;;;;;17.63;11.20;;;12.10;99.90;;;;;;5051139;28;20033;-81
2023/06/09 02:05:51;;;;;;;18.85;10.93;;;12.10;99.90;;;;;;5054123;28;20032;-80
2023/06/09 02:08:17;;;;;;;18.48;11.63;;;12.00;99.90;;;;;;5056828;28;20043;-80
2023/06/09 02:10:43;;;;;;;22.55;12.43;;;12.00;99.90;;;;;;5049422;28;20391;-80
2023/06/09 02:13:14;;;;;;;17.13;11.57;;;12.00;99.90;;;;;;5036898;28;20037;-81
2023/06/09 02:15:40;;;;;;;21.52;12.25;;;12.00;99.90;;;;;;5033534;28;20045;-80
2023/06/09 02:18:09;;;;;;;18.70;12.00;;;11.90;99.90;;;;;;5088487;22;20048;-76
2023/06/09 02:20:35;;;;;;;19.10;12.32;;;12.00;99.90;;;;;;5060615;28;20040;-76
2023/06/09 02:23:01;;;;;;;17.75;12.25;;;11.90;99.90;;;;;;5054780;28;20077;-77
2023/06/09 02:25:28;;;;;;;18.88;12.95;;;12.00;99.90;;;;;;5090645;28;20481;-76
2023/06/09 02:27:53;;;;;;;20.25;12.77;;;11.90;99.90;;;;;;5057260;28;20040;-76
2023/06/09 02:30:19;;;;;;;22.65;13.35;;;11.90;99.90;;;;;;5073897;28;20482;-76
2023/06/09 02:32:45;;;;;;;20.23;13.13;;;11.90;99.90;;;;;;5075233;28;20082;-77
2023/06/09 02:35:10;;;;;;;22.98;13.88;;;11.90;99.90;;;;;;5067570;28;20032;-77
2023/06/09 02:37:36;;;;;;;16.85;12.68;;;11.90;99.90;;;;;;5076975;28;20501;-77
2023/06/09 02:40:03;;;;;;;24.98;14.60;;;11.90;99.90;;;;;;5060300;28;20032;-77
2023/06/09 02:42:29;;;;;;;22.92;13.80;;;11.90;99.90;;;;;;5076607;28;20044;-76
2023/06/09 02:44:55;;;;;;;20.85;13.48;;;11.90;99.90;;;;;;5055982;28;20043;-76
2023/06/09 02:47:20;;;;;;;21.17;13.63;;;11.90;99.90;;;;;;5055253;28;20032;-76
2023/06/09 02:49:46;;;;;;;24.30;14.75;;;11.90;99.90;;;;;;5069542;28;20036;-76
2023/06/09 02:52:11;;;;;;;24.98;14.60;;;11.90;99.90;;;;;;5056686;28;20451;-76
2023/06/09 02:54:37;;;;;;;25.50;15.15;;;11.80;99.90;;;;;;5059377;28;20042;-76
2023/06/09 02:57:04;;;;;;;22.08;14.75;;;11.70;99.90;;;;;;5058101;28;20048;-77
2023/06/09 02:59:29;;;;;;;24.25;14.63;;;11.60;99.90;;;;;;5070350;28;20086;-77
2023/06/09 03:01:55;;;;;;;21.98;15.18;;;11.60;99.90;;;;;;5076292;28;20509;-76
2023/06/09 03:04:21;;;;;;;25.23;15.50;;;11.60;99.90;;;;;;5075080;28;20059;-76
2023/06/09 03:06:49;;;;;;;23.85;15.27;;;11.60;99.90;;;;;;5076903;28;20032;-76
2023/06/09 03:09:15;;;;;;;24.67;16.10;;;11.50;99.90;;;;;;5056616;28;20445;-76
2023/06/09 03:11:41;;;;;;;24.25;15.70;;;11.50;99.90;;;;;;5056846;28;20045;-76
2023/06/09 03:14:08;;;;;;;24.40;16.08;;;11.50;99.90;;;;;;5075161;28;20036;-77
2023/06/09 03:16:34;;;;;;;26.55;16.00;;;11.50;99.90;;;;;;5074896;28;20051;-77
2023/06/09 03:19:00;;;;;;;22.15;16.02;;;11.40;99.90;;;;;;5076238;28;20382;-76
2023/06/09 03:21:25;;;;;;;24.98;16.10;;;11.40;99.90;;;;;;5076492;28;20036;-77
2023/06/09 03:23:51;;;;;;;25.00;16.60;;;11.40;99.90;;;;;;5075869;28;20397;-76
2023/06/09 03:26:20;;;;;;;29.92;16.90;;;11.40;99.90;;;;;;5076010;28;20038;-76
2023/06/09 03:28:46;;;;;;;25.25;16.35;;;11.30;99.90;;;;;;5079911;28;20406;-76
2023/06/09 03:31:13;;;;;;;22.30;16.42;;;11.30;99.90;;;;;;5058369;28;20043;-76
2023/06/09 03:33:38;;;;;;;21.98;15.98;;;11.30;99.90;;;;;;5072344;28;20122;-76
2023/06/09 03:36:04;;;;;;;24.35;16.95;;;11.30;99.90;;;;;;5048777;28;20068;-76
2023/06/09 03:38:30;;;;;;;26.13;18.00;;;11.20;99.90;;;;;;5051557;28;20040;-76
2023/06/09 03:40:55;;;;;;;28.02;17.65;;;11.20;99.90;;;;;;5075760;28;20032;-76
2023/06/09 03:43:21;;;;;;;23.45;17.15;;;11.20;99.90;;;;;;5075255;28;20032;-76
2023/06/09 03:45:46;;;;;;;30.10;18.30;;;11.20;99.90;;;;;;5072077;28;20513;-76
2023/06/09 03:48:12;;;;;;;29.65;18.50;;;11.20;99.90;;;;;;5058075;28;20032;-76
2023/06/09 03:50:40;;;;;;;26.25;18.02;;;11.20;99.90;;;;;;5075609;28;20032;-76
2023/06/09 03:53:05;;;;;;;26.45;18.60;;;11.20;99.90;;;;;;5075111;28;20071;-77
2023/06/09 03:55:31;;;;;;;27.05;19.20;;;11.20;99.90;;;;;;5072114;28;20117;-76
2023/06/09 03:57:57;;;;;;;25.98;18.23;;;11.20;99.90;;;;;;5071911;28;20047;-76
2023/06/09 04:00:23;;;;;;;30.25;18.38;;;11.20;99.90;;;;;;5070382;28;20044;-76
2023/06/09 04:02:48;;;;;;;28.67;18.85;;;11.20;99.90;;;;;;5074121;28;20027;-76
2023/06/09 04:05:15;;;;;;;26.23;18.27;;;11.20;99.90;;;;;;5072026;28;20562;-76
2023/06/09 04:07:40;;;;;;;27.40;19.38;;;11.30;99.90;;;;;;5038492;28;20122;-76
2023/06/09 04:10:07;;;;;;;26.15;18.98;;;11.30;99.90;;;;;;5038681;28;20032;-77
2023/06/09 04:12:32;;;;;;;23.95;18.05;;;11.40;99.90;;;;;;5055992;28;20048;-76
2023/06/09 04:14:59;;;;;;;26.38;20.02;;;11.40;99.90;;;;;;5058327;28;20047;-76
2023/06/09 04:17:25;;;;;;;28.48;19.23;;;11.40;99.90;;;;;;5074332;28;20040;-76
2023/06/09 04:19:51;;;;;;;26.80;19.08;;;11.40;99.90;;;;;;5074892;28;20410;-76
2023/06/09 04:22:17;;;;;;;30.33;19.30;;;11.50;99.90;;;;;;5075107;28;20040;-76
2023/06/09 04:24:43;;;;;;;27.75;19.48;;;11.60;99.90;;;;;;5072725;28;20514;-77
2023/06/09 04:27:09;;;;;;;24.83;18.27;;;11.90;99.90;;;;;;5054925;28;20574;-76
2023/06/09 04:29:34;;;;;;;25.30;17.77;;;12.10;99.90;;;;;;5074430;28;20512;-76
2023/06/09 04:32:00;;;;;;;25.75;17.00;;;12.40;99.90;;;;;;5057006;28;20055;-76
2023/06/09 04:34:27;;;;;;;21.35;17.30;;;12.60;99.90;;;;;;5054891;28;20044;-76
2023/06/09 04:36:53;;;;;;;24.08;17.00;;;12.90;99.90;;;;;;5045279;28;20375;-77
2023/06/09 04:39:19;;;;;;;23.38;17.05;;;13.00;99.90;;;;;;5053816;28;20036;-77
2023/06/09 04:41:47;;;;;;;21.52;15.73;;;13.30;99.90;;;;;;5070309;28;20044;-77
2023/06/09 04:44:13;;;;;;;21.67;15.93;;;13.40;99.90;;;;;;5074644;28;20044;-77
2023/06/09 04:46:39;;;;;;;21.52;15.35;;;13.60;99.90;;;;;;5073444;28;20040;-76
2023/06/09 04:49:11;;;;;;;19.63;14.50;;;13.80;99.90;;;;;;5074740;28;20044;-77
2023/06/09 04:51:46;;;;;;;24.15;14.75;;;13.90;99.90;;;;;;5074477;28;20062;-76
2023/06/09 04:54:28;;;;;;;22.42;14.88;;;14.10;99.90;;;;;;5067027;28;20044;-78
2023/06/09 04:56:57;;;;;;;19.45;13.98;;;14.20;99.90;;;;;;5090520;28;20046;-77
2023/06/09 04:59:28;;;;;;;19.83;14.18;;;14.40;99.90;;;;;;5069797;28;20043;-77
2023/06/09 05:01:55;;;;;;;22.83;13.55;;;14.40;99.90;;;;;;5053665;28;20059;-76
2023/06/09 05:04:21;;;;;;;23.52;12.80;;;14.60;99.90;;;;;;5073075;28;20111;-76
2023/06/09 05:06:47;;;;;;;19.52;13.57;;;14.70;99.90;;;;;;5069968;28;20032;-78
2023/06/09 05:09:13;;;;;;;18.75;13.15;;;14.80;99.90;;;;;;5074607;28;20042;-77
2023/06/09 05:11:38;;;;;;;17.67;12.70;;;15.00;99.90;;;;;;5073907;28;20040;-76
2023/06/09 05:14:07;;;;;;;21.58;12.77;;;15.10;99.90;;;;;;5073582;28;20035;-77
2023/06/09 05:16:34;;;;;;;17.95;12.07;;;15.30;99.90;;;;;;5073512;28;20039;-77
2023/06/09 05:19:00;;;;;;;20.60;11.57;;;15.60;99.90;;;;;;5057412;28;20092;-77
2023/06/09 05:21:26;;;;;;;16.13;11.80;;;15.70;99.90;;;;;;5090911;28;20040;-77
2023/06/09 05:23:52;;;;;;;17.88;11.55;;;15.90;99.90;;;;;;5090503;28;20063;-77
2023/06/09 05:26:18;;;;;;;16.75;11.45;;;16.00;99.90;;;;;;5056954;28;20119;-77
2023/06/09 05:28:44;;;;;;;18.13;11.27;;;16.30;99.90;;;;;;5073741;28;20111;-77
2023/06/09 05:31:11;;;;;;;20.25;11.50;;;16.30;99.90;;;;;;5070317;28;20047;-77
2023/06/09 05:33:37;;;;;;;16.63;10.90;;;16.40;99.90;;;;;;5069414;28;20508;-77
2023/06/09 05:36:03;;;;;;;19.50;10.68;;;16.50;99.90;;;;;;5071336;28;20043;-77
2023/06/09 05:38:29;;;;;;;15.88;10.40;;;16.70;99.90;;;;;;5057880;28;20055;-77
2023/06/09 05:40:55;;;;;;;14.60;9.77;;;17.00;99.90;;;;;;5071890;28;20516;-77
2023/06/09 05:43:21;;;;;;;16.70;9.75;;;17.20;99.90;;;;;;5066283;28;20498;-77
2023/06/09 05:45:47;;;;;;;14.50;10.23;;;17.20;99.90;;;;;;5072570;28;20032;-78
2023/06/09 05:48:12;;;;;;;17.88;10.57;;;17.40;99.90;;;;;;5072504;28;20040;-78
2023/06/09 05:50:40;;;;;;;15.13;10.07;;;17.60;99.90;;;;;;5073304;28;20374;-78
2023/06/09 05:53:05;;;;;;;18.08;10.23;;;17.60;99.90;;;;;;5074793;28;20048;-80
2023/06/09 05:55:31;;;;;;;14.85;9.52;;;17.60;99.90;;;;;;5089168;28;20039;-78
2023/06/09 05:57:59;;;;;;;16.27;10.32;;;17.60;99.90;;;;;;5069059;28;20028;-79
2023/06/09 06:00:29;;;;;;;16.25;9.80;;;17.70;99.90;;;;;;5057399;28;20486;-79
2023/06/09 06:02:55;;;;;;;15.80;9.82;;;17.60;99.90;;;;;;5047226;28;20032;-79
2023/06/09 06:05:21;;;;;;;15.18;9.90;;;17.20;99.90;;;;;;5091871;28;20090;-79
2023/06/09 06:07:46;;;;;;;13.77;10.13;;;17.00;99.90;;;;;;5087424;28;20072;-79
2023/06/09 06:10:12;;;;;;;13.23;10.35;;;16.80;99.90;;;;;;5066219;28;20514;-79
2023/06/09 06:12:38;;;;;;;18.63;10.70;;;16.70;99.90;;;;;;5074795;28;20040;-79
2023/06/09 06:15:04;;;;;;;17.60;11.20;;;16.60;99.90;;;;;;5075537;28;20046;-79
2023/06/09 06:17:30;;;;;;;14.05;10.45;;;16.60;99.90;;;;;;5074331;28;20085;-79
2023/06/09 06:19:56;;;;;;;17.60;10.63;;;16.50;99.90;;;;;;5074302;28;20032;-79
2023/06/09 06:22:22;;;;;;;16.33;10.75;;;16.30;99.90;;;;;;5073990;28;20043;-79
2023/06/09 06:24:47;;;;;;;16.33;10.55;;;16.50;99.90;;;;;;5091410;28;20554;-79
2023/06/09 06:27:13;;;;;;;16.13;11.60;;;16.50;99.90;;;;;;5074712;28;20039;-79
2023/06/09 06:29:38;;;;;;;18.83;10.68;;;16.60;99.90;;;;;;5076524;28;20035;-79
2023/06/09 06:32:06;;;;;;;14.90;10.93;;;16.60;99.90;;;;;;5075198;28;20040;-78
2023/06/09 06:34:31;;;;;;;14.55;9.88;;;16.70;99.90;;;;;;5074808;28;20051;-79
2023/06/09 06:36:57;;;;;;;16.35;11.27;;;16.60;99.90;;;;;;5088238;28;20036;-79
2023/06/09 06:39:23;;;;;;;16.63;10.20;;;16.70;99.90;;;;;;5057669;28;20485;-79
2023/06/09 06:41:48;;;;;;;14.32;9.77;;;16.80;99.90;;;;;;5058544;28;20409;-79
2023/06/09 06:44:14;;;;;;;16.55;10.82;;;17.00;99.90;;;;;;5054858;28;20033;-79
2023/06/09 06:46:40;;;;;;;15.40;11.00;;;17.10;99.90;;;;;;5087072;28;20034;-79
2023/06/09 06:49:06;;;;;;;15.13;10.20;;;17.20;99.90;;;;;;5076796;28;20127;-79
2023/06/09 06:51:32;;;;;;;15.13;10.95;;;17.30;99.90;;;;;;5097248;28;20586;-79
2023/06/09 06:53:57;;;;;;;16.27;10.60;;;17.30;99.90;;;;;;5084274;28;20036;-79
2023/06/09 06:56:24;;;;;;;14.50;10.68;;;17.50;99.90;;;;;;5076646;28;20060;-78
2023/06/09 06:58:50;;;;;;;15.15;10.15;;;17.60;99.90;;;;;;5076984;28;20059;-79
2023/06/09 07:01:17;;;;;;;12.10;9.90;;;17.70;99.90;;;;;;5076903;28;20075;-79
2023/06/09 07:03:43;;;;;;;13.88;10.10;;;17.80;99.90;;;;;;5094199;28;20100;-78
2023/06/09 07:06:09;;;;;;;14.63;9.68;;;17.90;99.90;;;;;;5059715;28;20036;-78
2023/06/09 07:08:35;;;;;;;14.88;10.20;;;18.00;99.90;;;;;;5076165;28;20092;-79
2023/06/09 07:11:01;;;;;;;14.32;10.40;;;18.10;99.90;;;;;;5076681;28;20530;-79
2023/06/09 07:13:27;;;;;;;13.95;10.63;;;18.10;99.90;;;;;;5060395;28;20040;-78
2023/06/09 07:15:52;;;;;;;14.30;10.10;;;18.30;99.90;;;;;;5077364;28;20093;-79
2023/06/09 07:18:18;;;;;;;15.00;9.77;;;18.30;99.90;;;;;;5076345;28;20042;-79
2023/06/09 07:20:44;;;;;;;11.90;9.63;;;18.40;99.90;;;;;;5060230;28;20154;-79
2023/06/09 07:23:09;;;;;;;17.80;10.23;;;18.60;99.90;;;;;;5077536;28;20398;-79
2023/06/09 07:25:35;;;;;;;15.80;10.07;;;18.60;99.90;;;;;;5094737;28;20127;-78
2023/06/09 07:28:02;;;;;;;13.38;9.43;;;18.70;99.90;;;;;;5077393;28;20447;-79
2023/06/09 07:30:27;;;;;;;10.23;8.75;;;18.70;99.90;;;;;;5094007;28;20042;-79
2023/06/09 07:32:53;;;;;;;14.52;9.55;;;18.90;99.90;;;;;;5091320;28;20028;-79
2023/06/09 07:35:20;;;;;;;14.13;8.70;;;19.10;99.90;;;;;;5058741;28;20062;-79
2023/06/09 07:37:46;;;;;;;13.55;9.00;;;19.20;99.90;;;;;;5059330;28;20036;-79
2023/06/09 07:40:12;;;;;;;12.75;9.00;;;19.40;99.90;;;;;;5073883;28;20120;-78
2023/06/09 07:42:38;;;;;;;15.98;8.90;;;19.60;99.90;;;;;;5073019;28;20044;-78
2023/06/09 07:45:04;;;;;;;10.88;8.35;;;19.90;99.90;;;;;;5073124;28;20490;-78
2023/06/09 07:47:30;;;;;;;11.48;8.25;;;20.30;99.90;;;;;;5075434;28;20040;-79
2023/06/09 07:49:56;;;;;;;13.40;8.88;;;20.90;99.90;;;;;;5076746;28;20036;-78
2023/06/09 07:52:21;;;;;;;10.90;8.32;;;21.50;99.90;;;;;;5074163;28;20044;-79
2023/06/09 07:54:47;;;;;;;15.48;8.27;;;21.90;99.90;;;;;;5056975;28;20040;-78
2023/06/09 07:57:13;;;;;;;11.68;7.40;;;22.40;95.40;;;;;;5076910;28;20044;-79
2023/06/09 07:59:40;;;;;;;11.23;7.35;;;22.70;90.20;;;;;;5077205;28;20081;-78
2023/06/09 08:02:05;;;;;;;9.43;7.15;;;22.90;82.60;;;;;;5077069;28;20157;-79
2023/06/09 08:04:31;;;;;;;9.82;7.05;;;23.10;82.50;;;;;;5077526;28;20068;-79
2023/06/09 08:06:59;;;;;;;10.95;6.82;;;23.50;84.20;;;;;;5093297;28;20090;-78
2023/06/09 08:09:26;;;;;;;12.48;7.47;;;24.00;77.60;;;;;;5077727;28;20055;-79
2023/06/09 08:11:52;;;;;;;10.52;7.00;;;24.30;71.50;;;;;;5086607;28;20465;-79
2023/06/09 08:14:17;;;;;;;9.82;6.95;;;24.40;71.60;;;;;;5094361;28;20044;-79
2023/06/09 08:16:44;;;;;;;9.25;6.70;;;24.50;69.30;;;;;;5075583;28;20105;-79
2023/06/09 08:19:10;;;;;;;9.75;6.57;;;24.60;69.60;;;;;;5093044;22;20052;-77
2023/06/09 08:21:43;;;;;;;9.27;6.50;;;24.70;67.60;;;;;;5051504;28;20052;-77
2023/06/09 08:24:13;;;;;;;8.52;6.72;;;24.80;66.30;;;;;;5051387;28;20116;-77
2023/06/09 08:26:40;;;;;;;12.70;6.60;;;24.70;67.60;;;;;;5033259;28;20510;-77
2023/06/09 08:29:09;;;;;;;10.30;6.95;;;24.90;68.20;;;;;;5049857;28;20047;-77
2023/06/09 08:31:37;;;;;;;11.30;6.72;;;25.20;66.70;;;;;;5054984;28;20519;-77
2023/06/09 08:34:03;;;;;;;12.02;7.13;;;25.40;66.30;;;;;;5054958;28;20105;-77
2023/06/09 08:36:30;;;;;;;10.43;6.80;;;25.60;65.50;;;;;;5054590;28;20042;-77
2023/06/09 08:38:55;;;;;;;10.48;6.43;;;25.70;65.40;;;;;;5054211;28;20036;-77
2023/06/09 08:41:25;;;;;;;10.60;6.30;;;25.80;65.20;;;;;;5034776;28;20388;-77
2023/06/09 08:43:51;;;;;;;8.10;6.15;;;25.90;64.80;;;;;;5034893;28;20664;-78
2023/06/09 08:46:19;;;;;;;10.55;6.78;;;26.10;65.80;;;;;;5067743;28;20036;-78
2023/06/09 08:48:53;;;;;;;10.13;6.63;;;26.50;65.50;;;;;;5034859;28;20379;-77
2023/06/09 08:51:21;;;;;;;7.63;6.18;;;27.00;61.90;;;;;;5034862;28;20484;-77
2023/06/09 08:53:51;;;;;;;9.43;6.53;;;27.00;62.30;;;;;;5046928;28;20033;-78
2023/06/09 08:56:18;;;;;;;9.60;6.63;;;27.00;60.80;;;;;;5051130;28;20040;-78
2023/06/09 08:58:44;;;;;;;8.88;6.50;;;26.90;62.80;;;;;;5050984;28;20037;-77
2023/06/09 09:01:10;;;;;;;9.73;6.68;;;27.10;61.70;;;;;;5058576;28;20127;-78
2023/06/09 09:03:36;;;;;;;9.55;6.43;;;27.20;61.00;;;;;;5048643;28;20460;-77
2023/06/09 09:06:02;;;;;;;8.45;6.25;;;27.20;60.70;;;;;;5034143;28;20124;-77
2023/06/09 09:08:27;;;;;;;10.60;6.95;;;27.10;60.70;;;;;;5034285;28;20083;-78
2023/06/09 09:10:53;;;;;;;11.68;6.30;;;27.10;60.40;;;;;;5034531;28;20080;-77
2023/06/09 09:13:24;;;;;;;9.07;6.45;;;27.10;61.00;;;;;;5033589;28;20127;-79
2023/06/09 09:15:50;;;;;;;8.50;6.75;;;27.30;60.80;;;;;;5040487;28;20072;-78
2023/06/09 09:18:17;;;;;;;8.35;6.40;;;27.60;59.90;;;;;;5051927;28;20075;-77
2023/06/09 09:20:44;;;;;;;9.82;6.95;;;27.80;60.00;;;;;;5054109;28;20090;-77
2023/06/09 09:23:10;;;;;;;9.90;6.72;;;27.90;58.70;;;;;;5053194;28;20036;-78
2023/06/09 09:25:36;;;;;;;10.40;6.53;;;27.90;59.10;;;;;;5050903;28;20487;-78
2023/06/09 09:28:03;;;;;;;10.98;6.15;;;28.00;58.40;;;;;;5033716;28;20041;-78
2023/06/09 09:30:46;;;;;;;11.27;6.97;;;28.00;58.90;;;;;;5035206;28;20435;-77
2023/06/09 09:33:14;;;;;;;10.52;6.78;;;28.10;58.70;;;;;;5087083;28;20491;-77
2023/06/09 09:35:43;;;;;;;8.38;6.13;;;28.10;58.20;;;;;;5051216;28;20079;-79
2023/06/09 09:38:16;;;;;;;8.70;6.30;;;28.30;57.90;;;;;;5067319;28;20518;-80
2023/06/09 09:40:56;;;;;;;9.27;6.15;;;28.30;57.90;;;;;;5069875;28;20047;-78
2023/06/09 09:43:28;;;;;;;10.18;6.97;;;28.50;58.50;;;;;;5049724;28;20073;-78
2023/06/09 09:45:58;;;;;;;9.35;6.45;;;28.80;57.40;;;;;;5048116;28;20059;-78
2023/06/09 09:48:24;;;;;;;8.60;5.95;;;28.90;56.00;;;;;;5049696;28;20079;-78
2023/06/09 09:50:52;;;;;;;9.05;6.78;;;28.90;56.70;;;;;;5049389;28;20048;-77
2023/06/09 09:53:23;;;;;;;11.07;7.00;;;28.80;56.40;;;;;;5095301;28;20075;-77
2023/06/09 09:55:52;;;;;;;11.45;6.47;;;28.90;56.60;;;;;;5084683;28;20032;-78
2023/06/09 09:58:19;;;;;;;10.43;6.68;;;29.10;55.90;;;;;;5068245;28;20037;-78
2023/06/09 10:00:48;;;;;;;11.07;6.18;;;29.10;55.20;;;;;;5033601;28;20052;-78
2023/06/09 10:03:18;;;;;;;9.23;6.40;;;29.00;56.10;;;;;;5041699;28;20123;-79
2023/06/09 10:05:49;;;;;;;8.52;5.82;;;29.30;56.40;;;;;;5047250;28;20596;-78
2023/06/09 10:08:35;;;;;;;9.77;6.30;;;29.50;55.30;;;;;;5053687;28;20036;-78
2023/06/09 10:11:02;;;;;;;9.68;6.75;;;29.80;53.70;;;;;;5052395;28;20468;-78
2023/06/09 10:13:28;;;;;;;10.65;6.03;;;29.70;54.60;;;;;;5052727;28;20085;-79
2023/06/09 10:15:56;;;;;;;8.10;5.50;;;29.70;56.10;;;;;;5052063;28;20044;-79
2023/06/09 10:18:23;;;;;;;11.32;6.05;;;30.00;56.00;;;;;;5049848;28;20072;-78
2023/06/09 10:20:53;;;;;;;6.70;5.68;;;30.80;53.10;;;;;;5049922;28;20501;-80
2023/06/09 10:23:20;;;;;;;7.75;5.93;;;30.70;52.00;;;;;;5045291;28;20040;-79
2023/06/09 10:25:50;;;;;;;7.40;5.55;;;30.60;52.00;;;;;;5053862;28;20044;-77
2023/06/09 10:28:18;;;;;;;9.07;6.10;;;30.40;52.30;;;;;;5057319;28;20037;-78
2023/06/09 10:30:49;;;;;;;6.65;5.60;;;30.40;51.70;;;;;;5083558;28;20029;-78
2023/06/09 10:33:26;;;;;;;8.85;6.07;;;30.40;51.50;;;;;;5047210;28;20393;-78
2023/06/09 10:35:58;;;;;;;7.78;5.57;;;30.20;52.30;;;;;;5070240;28;20039;-78
2023/06/09 10:38:28;;;;;;;8.50;5.75;;;30.40;51.80;;;;;;5048741;28;20024;-79
2023/06/09 10:41:09;;;;;;;9.07;5.82;;;30.60;50.80;;;;;;5047796;28;20061;-78
2023/06/09 10:43:49;;;;;;;8.20;5.25;;;30.70;50.80;;;;;;5055019;28;20044;-78
2023/06/09 10:46:15;;;;;;;7.53;5.25;;;30.60;51.90;;;;;;5056045;28;20447;-78
2023/06/09 10:48:46;;;;;;;8.50;5.88;;;30.30;53.20;;;;;;5061727;28;20346;-78
2023/06/09 10:51:29;;;;;;;8.73;5.82;;;30.50;51.10;;;;;;5056998;28;20052;-79
2023/06/09 10:54:07;;;;;;;7.75;5.30;;;30.60;51.10;;;;;;5056554;28;20505;-78
2023/06/09 10:56:40;;;;;;;8.70;5.32;;;30.50;52.10;;;;;;5056821;28;20044;-79
2023/06/09 10:59:26;;;;;;;7.15;5.43;;;30.70;51.40;;;;;;5056140;28;20076;-79
2023/06/09 11:02:04;;;;;;;5.95;4.97;;;30.90;50.50;;;;;;5048109;28;20075;-78
2023/06/09 11:04:45;;;;;;;8.43;5.60;;;31.10;49.90;;;;;;5053119;28;20037;-78
2023/06/09 11:07:22;;;;;;;6.25;5.53;;;31.40;49.00;;;;;;5053026;28;20491;-78
2023/06/09 11:09:48;;;;;;;7.75;5.30;;;31.30;49.20;;;;;;5043965;28;20033;-78
2023/06/09 11:12:36;;;;;;;6.65;5.45;;;31.20;49.40;;;;;;5051730;28;20571;-78
2023/06/09 11:15:03;;;;;;;6.65;5.40;;;31.20;50.50;;;;;;5054026;28;20040;-78
2023/06/09 11:18:03;;;;;;;7.97;4.95;;;31.50;49.30;;;;;;5055428;28;20062;-78
2023/06/09 11:20:32;;;;;;;7.40;4.97;;;31.60;48.40;;;;;;5042671;28;20056;-77
2023/06/09 11:23:00;;;;;;;6.75;4.90;;;31.50;49.00;;;;;;5089802;28;20498;-79
2023/06/09 11:25:27;;;;;;;9.95;5.13;;;31.80;49.30;;;;;;5074567;28;20064;-79
2023/06/09 11:27:59;;;;;;;5.88;5.28;;;32.60;49.30;;;;;;5063509;28;20041;-79
2023/06/09 11:30:30;;;;;;;8.02;5.47;;;33.40;47.50;;;;;;5052270;28;20037;-79
2023/06/09 11:32:58;;;;;;;6.70;4.88;;;33.70;43.70;;;;;;5036075;28;20487;-79
2023/06/09 11:38:05;;;;;;;5.93;4.82;;;33.30;45.50;;;;;;5074643;28;20046;-79
2023/06/09 11:40:32;;;;;;;11.23;5.72;;;33.40;45.30;;;;;;5055652;28;20479;-79
2023/06/09 11:43:00;;;;;;;7.28;5.07;;;33.60;44.70;;;;;;5056514;28;20490;-79
2023/06/09 11:45:28;;;;;;;5.88;5.13;;;33.40;44.00;;;;;;5057920;28;20036;-79
2023/06/09 11:47:56;;;;;;;6.10;5.47;;;32.80;44.90;;;;;;5073466;28;20641;-79
2023/06/09 11:50:43;;;;;;;6.25;5.15;;;32.50;45.50;;;;;;5073554;28;20044;-79
2023/06/09 11:53:10;;;;;;;7.30;4.93;;;32.30;46.40;;;;;;5053134;28;20053;-79
2023/06/09 11:55:37;;;;;;;6.10;5.47;;;32.20;45.40;;;;;;5055936;28;20044;-78
2023/06/09 11:58:04;;;;;;;6.53;5.40;;;32.00;45.90;;;;;;5055363;28;20040;-79
2023/06/09 12:00:32;;;;;;;6.68;5.28;;;31.70;47.10;;;;;;5055219;28;20183;-79
2023/06/09 12:02:58;;;;;;;5.95;5.20;;;32.00;47.30;;;;;;5055304;28;20044;-80
2023/06/09 12:05:26;;;;;;;6.18;5.10;;;32.50;46.30;;;;;;5046840;28;20101;-79
2023/06/09 12:07:53;;;;;;;15.20;5.38;;;32.70;47.20;;;;;;5054365;28;20047;-79
2023/06/09 12:10:22;;;;;;;5.97;5.38;;;32.90;45.20;;;;;;5055425;28;20055;-78
2023/06/09 12:12:56;;;;;;;5.60;5.03;;;33.10;44.60;;;;;;5047702;28;20487;-81
2023/06/09 12:15:23;;;;;;;7.78;5.35;;;32.90;44.20;;;;;;5048497;28;20516;-77
2023/06/09 12:17:54;;;;;;;8.00;5.30;;;32.50;44.60;;;;;;5059845;28;20043;-78
2023/06/09 12:20:23;;;;;;;7.15;5.22;;;32.10;45.10;;;;;;5062663;28;20028;-82
2023/06/09 12:22:49;;;;;;;8.45;5.47;;;31.80;45.20;;;;;;5049518;28;20074;-78
2023/06/09 12:25:27;;;;;;;5.45;4.95;;;31.70;46.50;;;;;;5055128;28;20037;-78
2023/06/09 12:27:54;;;;;;;6.03;5.15;;;31.70;46.80;;;;;;5052598;28;20447;-81
2023/06/09 12:30:50;;;;;;;7.70;5.60;;;31.90;45.50;;;;;;5052506;28;20032;-79
2023/06/09 12:33:26;;;;;;;6.13;5.03;;;31.70;45.90;;;;;;5050641;28;20048;-78
2023/06/09 12:35:54;;;;;;;7.50;5.47;;;31.70;46.40;;;;;;5069947;28;20046;-77
2023/06/09 12:38:22;;;;;;;7.43;5.20;;;31.90;45.90;;;;;;5046899;28;20075;-78
2023/06/09 12:40:50;;;;;;;7.68;5.53;;;31.80;45.70;;;;;;5071974;28;20123;-77
2023/06/09 12:43:17;;;;;;;6.78;5.75;;;31.60;45.90;;;;;;5054389;28;20036;-77